createdAt,value
2022-10-04T00:02:20.928Z,101440.88
2022-10-04T00:04:57.343Z,101436.47
2022-10-04T00:07:30.162Z,101447.41
2022-10-04T00:10:01.441Z,101444.88
2022-10-04T00:12:34.740Z,101447.56
2022-10-04T00:15:06.721Z,101444.16
2022-10-04T00:17:36.257Z,101434.16
2022-10-04T00:20:44.458Z,101434.31
2022-10-04T00:23:46.810Z,101400.47
2022-10-04T00:26:54.159Z,101435.94
2022-10-04T00:29:32.242Z,101398.84
2022-10-04T00:32:30.066Z,101412.69
2022-10-04T00:34:59.781Z,101433.47
2022-10-04T00:37:29.110Z,101421.31
2022-10-04T00:40:20.006Z,101431.16
2022-10-04T00:42:56.279Z,101431.31
2022-10-04T00:45:37.666Z,101432.84
2022-10-04T00:48:34.679Z,101436.00
2022-10-04T00:51:12.926Z,101442.56
2022-10-04T00:53:53.166Z,101420.28
2022-10-04T00:56:30.333Z,101445.94
2022-10-04T00:59:18.330Z,101443.41
2022-10-04T01:01:51.121Z,101445.41
2022-10-04T01:04:31.260Z,101440.31
2022-10-04T01:07:02.374Z,101443.31
2022-10-04T01:09:33.867Z,101444.31
2022-10-04T01:12:06.738Z,101412.38
2022-10-04T01:14:45.596Z,101389.84
2022-10-04T01:17:14.035Z,101441.91
2022-10-04T01:19:52.067Z,101417.38
2022-10-04T01:22:36.841Z,101442.50
2022-10-04T01:25:05.770Z,101436.06
2022-10-04T01:27:37.736Z,101441.44
2022-10-04T01:30:10.887Z,101447.81
2022-10-04T01:32:40.865Z,101447.31
2022-10-04T01:35:11.282Z,101447.75
2022-10-04T01:37:41.302Z,101424.03
2022-10-04T01:40:11.348Z,101451.50
2022-10-04T01:42:46.110Z,101445.88
2022-10-04T01:45:21.415Z,101445.13
2022-10-04T01:47:54.415Z,101442.19
2022-10-04T01:50:30.051Z,101452.84
2022-10-04T01:53:04.117Z,101446.00
2022-10-04T01:55:37.139Z,101449.59
2022-10-04T01:58:12.940Z,101446.22
2022-10-04T02:00:47.511Z,101446.16
2022-10-04T02:03:21.483Z,101452.81
2022-10-04T02:05:54.619Z,101440.66
2022-10-04T02:08:30.779Z,101444.78
2022-10-04T02:11:00.742Z,101437.50
2022-10-04T02:13:35.029Z,101440.63
2022-10-04T02:16:04.043Z,101434.53
2022-10-04T02:18:34.345Z,101432.84
2022-10-04T02:21:05.579Z,101433.41
2022-10-04T02:23:38.701Z,101432.13
2022-10-04T02:26:08.090Z,101417.97
2022-10-04T02:28:37.966Z,101411.16
2022-10-04T02:31:25.310Z,101417.75
2022-10-04T02:33:56.853Z,101420.97
2022-10-04T02:36:27.433Z,101401.50
2022-10-04T02:39:02.742Z,101420.06
2022-10-04T02:41:34.127Z,101427.81
2022-10-04T02:44:10.513Z,101421.84
2022-10-04T02:46:46.169Z,101421.56
2022-10-04T02:49:21.569Z,101414.19
2022-10-04T02:51:55.638Z,101426.63
2022-10-04T02:54:32.206Z,101419.56
2022-10-04T02:57:01.571Z,101409.84
2022-10-04T02:59:35.254Z,101431.31
2022-10-04T03:02:04.257Z,101420.84
2022-10-04T03:04:36.349Z,101418.16
2022-10-04T03:07:07.812Z,101417.31
2022-10-04T03:09:39.387Z,101418.06
2022-10-04T03:12:12.164Z,101416.53
2022-10-04T03:14:41.403Z,101410.78
2022-10-04T03:17:10.390Z,101414.75
2022-10-04T03:19:39.950Z,101384.63
2022-10-04T03:22:11.062Z,101418.22
2022-10-04T03:24:47.891Z,101414.75
2022-10-04T03:27:20.838Z,101425.19
2022-10-04T03:29:50.474Z,101419.41
2022-10-04T03:32:20.626Z,101424.06
2022-10-04T03:34:54.746Z,101426.91
2022-10-04T03:37:27.330Z,101427.19
2022-10-04T03:39:58.859Z,101420.84
2022-10-04T03:42:29.479Z,101428.19
2022-10-04T03:45:03.094Z,101431.19
2022-10-04T03:47:34.100Z,101429.09
2022-10-04T03:50:06.413Z,101430.50
2022-10-04T03:52:38.017Z,101427.97
2022-10-04T03:55:09.694Z,101225.28
2022-10-04T03:57:39.296Z,101437.72
2022-10-04T04:00:08.318Z,101431.34
2022-10-04T04:02:47.004Z,101442.53
2022-10-04T04:05:23.018Z,101436.03
2022-10-04T04:08:02.267Z,101439.31
2022-10-04T04:10:34.597Z,101445.66
2022-10-04T04:13:08.659Z,101443.69
2022-10-04T04:15:37.180Z,101449.63
2022-10-04T04:18:08.262Z,101454.16
2022-10-04T04:20:38.910Z,101457.53
2022-10-04T04:23:16.847Z,101455.28
2022-10-04T04:25:49.726Z,101462.06
2022-10-04T04:28:27.519Z,101461.91
2022-10-04T04:31:01.394Z,101461.50
2022-10-04T04:33:33.202Z,101465.47
2022-10-04T04:36:06.629Z,101464.03
2022-10-04T04:38:56.532Z,101470.09
2022-10-04T04:41:27.462Z,101470.66
2022-10-04T04:43:56.145Z,101469.09
2022-10-04T04:46:27.612Z,101469.41
2022-10-04T04:49:02.498Z,101462.31
2022-10-04T04:51:33.500Z,101477.16
2022-10-04T04:54:05.050Z,101473.03
2022-10-04T04:56:36.150Z,101476.84
2022-10-04T04:59:08.789Z,101474.31
2022-10-04T05:01:43.678Z,101475.44
2022-10-04T05:04:20.143Z,101481.91
2022-10-04T05:06:50.269Z,101484.41
2022-10-04T05:09:26.482Z,101486.22
2022-10-04T05:12:02.482Z,101489.69
2022-10-04T05:14:31.744Z,101492.25
2022-10-04T05:17:00.155Z,101498.00
2022-10-04T05:19:31.896Z,101497.41
2022-10-04T05:22:03.754Z,101500.34
2022-10-04T05:24:35.976Z,101506.97
2022-10-04T05:27:10.147Z,101508.19
2022-10-04T05:29:40.637Z,101509.44
2022-10-04T05:32:25.935Z,101507.78
2022-10-04T05:34:54.677Z,101505.50
2022-10-04T05:37:35.612Z,101510.00
2022-10-04T05:40:17.329Z,101509.41
2022-10-04T05:42:47.896Z,101498.44
2022-10-04T05:45:20.147Z,101494.66
2022-10-04T05:47:51.551Z,101499.03
2022-10-04T05:50:24.230Z,101350.88
2022-10-04T05:52:53.715Z,101502.69
2022-10-04T05:55:35.237Z,101507.50
2022-10-04T05:58:34.383Z,101498.75
2022-10-04T06:01:18.337Z,101512.41
2022-10-04T06:04:06.050Z,101512.94
2022-10-04T06:06:42.108Z,101521.25
2022-10-04T06:09:22.141Z,101517.31
2022-10-04T06:12:01.310Z,101524.63
2022-10-04T06:14:58.645Z,101520.25
2022-10-04T06:17:43.128Z,101521.97
2022-10-04T06:20:43.828Z,101515.81
2022-10-04T06:23:16.853Z,101523.56
2022-10-04T06:25:48.881Z,101519.63
2022-10-04T06:28:23.370Z,101518.38
2022-10-04T06:31:14.933Z,101505.72
2022-10-04T06:34:05.051Z,101511.78
2022-10-04T06:36:48.145Z,101514.91
2022-10-04T06:39:32.759Z,101518.75
2022-10-04T06:42:34.274Z,101522.03
2022-10-04T06:45:21.290Z,101524.50
2022-10-04T06:48:07.380Z,101524.69
2022-10-04T06:50:42.355Z,101525.56
2022-10-04T06:53:27.805Z,101530.53
2022-10-04T06:56:22.651Z,101532.66
2022-10-04T06:59:13.874Z,101528.38
2022-10-04T07:01:50.863Z,101537.72
2022-10-04T07:04:41.149Z,101535.69
2022-10-04T07:07:36.333Z,101540.69
2022-10-04T07:10:21.487Z,101541.84
2022-10-04T07:13:01.276Z,101544.25
2022-10-04T07:15:36.739Z,101546.03
2022-10-04T07:18:09.893Z,101547.28
2022-10-04T07:20:39.858Z,101555.03
2022-10-04T07:23:15.749Z,101550.47
2022-10-04T07:25:48.074Z,101552.44
2022-10-04T07:28:38.206Z,101548.31
2022-10-04T07:31:14.457Z,101558.09
2022-10-04T07:33:50.943Z,101549.84
2022-10-04T07:36:25.756Z,101561.97
2022-10-04T07:39:00.310Z,101448.06
2022-10-04T07:41:33.994Z,101558.94
2022-10-04T07:44:07.761Z,101558.91
2022-10-04T07:46:47.647Z,101559.31
2022-10-04T07:49:17.472Z,101522.59
2022-10-04T07:52:03.800Z,101549.81
2022-10-04T07:54:40.073Z,101563.53
2022-10-04T07:57:16.330Z,101569.53
2022-10-04T07:59:55.871Z,101568.06
2022-10-04T08:02:33.521Z,101567.84
2022-10-04T08:05:16.900Z,101574.41
2022-10-04T08:08:00.176Z,101573.66
2022-10-04T08:10:35.605Z,101570.94
2022-10-04T08:13:17.385Z,101580.56
2022-10-04T08:15:46.376Z,101575.47
2022-10-04T08:18:29.315Z,101579.19
2022-10-04T08:20:59.870Z,101574.97
2022-10-04T08:23:51.622Z,101576.84
2022-10-04T08:26:41.944Z,101580.03
2022-10-04T08:29:44.369Z,101588.88
2022-10-04T08:32:44.801Z,101577.13
2022-10-04T08:35:36.372Z,101580.38
2022-10-04T08:38:26.162Z,101577.41
2022-10-04T08:41:26.764Z,101582.03
2022-10-04T08:44:44.566Z,101583.06
2022-10-04T08:47:50.854Z,101583.63
2022-10-04T08:51:00.227Z,101585.69
2022-10-04T08:54:04.770Z,101576.81
2022-10-04T08:56:53.607Z,101585.44
2022-10-04T08:59:59.070Z,101582.34
2022-10-04T09:02:53.318Z,101586.94
2022-10-04T09:05:43.942Z,101595.72
2022-10-04T09:08:55.068Z,101596.81
2022-10-04T09:11:41.616Z,101592.00
2022-10-04T09:14:31.875Z,101595.25
2022-10-04T09:17:21.844Z,101594.09
2022-10-04T09:20:19.778Z,101598.69
2022-10-04T09:22:50.192Z,101593.50
2022-10-04T09:25:40.396Z,101597.28
2022-10-04T09:28:38.531Z,101608.16
2022-10-04T09:31:27.977Z,101596.25
2022-10-04T09:34:17.285Z,101596.72
2022-10-04T09:37:03.669Z,101595.88
2022-10-04T09:40:08.124Z,101602.34
2022-10-04T09:43:04.883Z,101598.13
2022-10-04T09:45:49.743Z,101602.53
2022-10-04T09:48:33.897Z,101597.38
2022-10-04T09:51:29.601Z,101596.81
2022-10-04T09:54:16.776Z,101591.38
2022-10-04T09:57:01.406Z,101603.38
2022-10-04T09:59:59.615Z,101598.97
2022-10-04T10:02:59.048Z,101601.69
2022-10-04T10:05:48.998Z,101599.63
2022-10-04T10:08:28.238Z,101597.16
2022-10-04T10:11:25.238Z,101559.53
2022-10-04T10:14:20.113Z,101594.34
2022-10-04T10:17:08.164Z,101593.38
2022-10-04T10:20:16.870Z,101603.97
2022-10-04T10:23:26.568Z,101608.22
2022-10-04T10:26:22.990Z,101592.66
2022-10-04T10:29:17.821Z,101593.81
2022-10-04T10:32:00.135Z,101595.19
2022-10-04T10:35:15.731Z,101598.22
2022-10-04T10:38:04.425Z,101596.38
2022-10-04T10:40:48.580Z,101591.44
2022-10-04T10:43:43.476Z,101522.78
2022-10-04T10:46:25.770Z,101586.44
2022-10-04T10:49:22.330Z,101589.91
2022-10-04T10:52:26.637Z,101583.72
2022-10-04T10:55:19.558Z,101581.28
2022-10-04T10:58:15.677Z,101574.25
2022-10-04T11:00:58.042Z,101571.81
2022-10-04T11:03:54.175Z,101572.47
2022-10-04T11:06:52.355Z,101570.84
2022-10-04T11:09:46.869Z,101571.66
2022-10-04T11:12:50.953Z,101569.59
2022-10-04T11:15:41.601Z,101567.91
2022-10-04T11:18:55.241Z,101576.78
2022-10-04T11:22:15.421Z,101575.50
2022-10-04T11:25:25.410Z,101571.75
2022-10-04T11:28:04.493Z,101572.56
2022-10-04T11:31:02.668Z,101573.63
2022-10-04T11:34:09.167Z,101581.16
2022-10-04T11:36:57.332Z,101575.72
2022-10-04T11:39:46.055Z,101577.59
2022-10-04T11:42:28.119Z,101578.66
2022-10-04T11:45:38.412Z,101572.75
2022-10-04T11:48:24.834Z,101571.50
2022-10-04T11:51:19.038Z,101565.59
2022-10-04T11:54:16.897Z,101568.53
2022-10-04T11:57:06.971Z,101569.19
2022-10-04T11:59:46.861Z,101566.44
2022-10-04T12:02:56.581Z,101561.19
2022-10-04T12:06:01.821Z,101556.34
2022-10-04T12:08:41.931Z,101564.31
2022-10-04T12:11:51.082Z,101561.38
2022-10-04T12:14:32.669Z,101560.94
2022-10-04T12:17:33.568Z,101560.53
2022-10-04T12:20:28.825Z,101553.59
2022-10-04T12:23:15.544Z,101547.28
2022-10-04T12:26:09.734Z,101543.00
2022-10-04T12:29:17.586Z,101539.41
2022-10-04T12:31:50.618Z,101536.25
2022-10-04T12:34:27.994Z,101531.81
2022-10-04T12:37:07.571Z,101534.69
2022-10-04T12:40:00.963Z,101528.38
2022-10-04T12:42:37.113Z,101528.78
2022-10-04T12:45:27.765Z,101536.75
2022-10-04T12:48:12.552Z,101532.97
2022-10-04T12:50:54.993Z,101524.13
2022-10-04T12:53:35.646Z,101518.13
2022-10-04T12:56:09.451Z,101508.84
2022-10-04T12:59:01.297Z,101516.59
2022-10-04T13:01:41.706Z,101516.66
2022-10-04T13:04:34.264Z,101511.09
2022-10-04T13:07:20.253Z,101490.94
2022-10-04T13:10:22.481Z,101516.97
2022-10-04T13:13:11.343Z,101503.72
2022-10-04T13:18:43.971Z,101504.50
2022-10-04T13:21:17.758Z,101497.13
2022-10-04T13:24:00.744Z,101499.84
2022-10-04T13:26:46.734Z,101502.34
2022-10-04T13:29:24.382Z,101498.78
2022-10-04T13:31:59.111Z,101501.69
2022-10-04T13:34:38.233Z,101495.78
2022-10-04T13:37:32.743Z,101497.28
2022-10-04T13:40:26.661Z,101494.59
2022-10-04T13:43:20.587Z,101493.13
2022-10-04T13:46:01.319Z,101489.34
2022-10-04T13:48:44.478Z,101489.56
2022-10-04T13:51:35.890Z,101488.28
2022-10-04T13:54:35.309Z,101487.00
2022-10-04T13:57:19.901Z,101486.38
2022-10-04T13:59:55.131Z,101490.13
2022-10-04T14:02:56.734Z,101489.06
2022-10-04T14:06:10.466Z,101496.84
2022-10-04T14:09:11.105Z,101491.53
2022-10-04T14:12:06.858Z,101489.25
2022-10-04T14:15:07.692Z,101484.66
2022-10-04T14:18:27.152Z,101495.38
2022-10-04T14:21:32.886Z,101494.38
2022-10-04T14:24:33.313Z,101493.75
2022-10-04T14:27:31.778Z,101483.66
2022-10-04T14:30:17.560Z,101490.84
2022-10-04T14:33:26.084Z,101489.16
2022-10-04T14:36:13.889Z,101492.13
2022-10-04T14:39:01.566Z,101491.13
2022-10-04T14:42:07.155Z,101491.13
2022-10-04T14:45:05.494Z,101501.66
2022-10-04T14:48:03.372Z,101501.03
2022-10-04T14:50:41.390Z,101482.25
2022-10-04T14:53:22.195Z,101502.75
2022-10-04T14:56:09.378Z,101498.38
2022-10-04T14:58:52.984Z,101498.00
2022-10-04T15:01:22.738Z,101504.09
2022-10-04T15:04:26.088Z,101501.38
2022-10-04T15:06:58.380Z,101497.59
2022-10-04T15:09:58.948Z,101503.50
2022-10-04T15:13:10.036Z,101497.00
2022-10-04T15:15:52.484Z,101494.13
2022-10-04T15:18:32.396Z,101496.00
2022-10-04T15:21:11.144Z,101492.03
2022-10-04T15:23:43.427Z,101497.69
2022-10-04T15:26:44.965Z,101498.75
2022-10-04T15:29:26.446Z,101493.53
2022-10-04T15:32:07.463Z,101503.81
2022-10-04T15:34:48.953Z,101500.66
2022-10-04T15:37:28.104Z,101502.38
2022-10-04T15:40:20.155Z,101495.88
2022-10-04T15:43:20.060Z,101495.03
2022-10-04T15:46:24.019Z,101504.09
2022-10-04T15:49:09.515Z,101501.78
2022-10-04T15:51:51.560Z,101501.56
2022-10-04T15:57:31.476Z,101500.31
2022-10-04T16:00:08.895Z,101500.09
2022-10-04T16:03:09.338Z,101508.94
2022-10-04T16:05:42.926Z,101506.44
2022-10-04T16:08:42.919Z,101516.31
2022-10-04T16:11:37.035Z,101521.97
2022-10-04T16:14:36.650Z,101514.38
2022-10-04T16:17:41.199Z,101523.66
2022-10-04T16:20:46.372Z,101520.25
2022-10-04T16:23:28.127Z,101515.44
2022-10-04T16:25:58.282Z,101520.22
2022-10-04T16:28:48.076Z,101528.59
2022-10-04T16:31:29.721Z,101528.53
2022-10-04T16:34:03.974Z,101527.88
2022-10-04T16:36:48.727Z,101527.81
2022-10-04T16:39:52.624Z,101536.81
2022-10-04T16:42:27.798Z,101540.53
2022-10-04T16:45:01.059Z,101551.41
2022-10-04T16:47:35.076Z,101541.69
2022-10-04T16:50:05.628Z,101556.75
2022-10-04T16:52:59.048Z,101562.31
2022-10-04T16:55:53.221Z,101544.94
2022-10-04T17:01:43.407Z,101573.38
2022-10-04T17:04:42.501Z,101550.38
2022-10-04T17:07:23.666Z,101576.78
2022-10-04T17:10:02.830Z,101569.16
2022-10-04T17:12:37.340Z,101573.91
2022-10-04T17:15:34.977Z,101576.06
2022-10-04T17:18:14.526Z,101576.50
2022-10-04T17:20:57.710Z,101575.78
2022-10-04T17:23:43.015Z,101569.75
2022-10-04T17:26:27.093Z,101581.44
2022-10-04T17:28:58.215Z,101585.69
2022-10-04T17:31:36.769Z,101587.66
2022-10-04T17:34:14.921Z,101592.56
2022-10-04T17:36:49.726Z,101592.25
2022-10-04T17:39:44.496Z,101598.41
2022-10-04T17:42:31.444Z,101598.06
2022-10-04T17:45:33.134Z,101598.31
2022-10-04T17:48:24.154Z,101605.69
2022-10-04T17:51:17.419Z,101601.75
2022-10-04T17:54:09.424Z,101605.94
2022-10-04T17:56:44.942Z,101614.91
2022-10-04T17:59:19.320Z,101617.78
2022-10-04T18:01:53.157Z,101617.66
2022-10-04T18:04:26.365Z,101616.75
2022-10-04T18:06:59.712Z,101614.81
2022-10-04T18:09:35.779Z,101624.09
2022-10-04T18:12:12.641Z,101630.94
2022-10-04T18:14:52.161Z,101629.69
2022-10-04T18:17:33.100Z,101631.94
2022-10-04T18:20:37.839Z,101634.84
2022-10-04T18:23:18.631Z,101552.63
2022-10-04T18:25:49.691Z,101629.78
2022-10-04T18:28:22.283Z,101635.38
2022-10-04T18:30:59.355Z,101629.31
2022-10-04T18:33:45.588Z,101636.94
2022-10-04T18:36:17.911Z,101640.03
2022-10-04T18:39:00.983Z,101641.53
2022-10-04T18:41:46.411Z,101633.94
2022-10-04T18:44:16.936Z,101642.88
2022-10-04T18:46:51.290Z,101646.41
2022-10-04T18:49:25.291Z,101655.38
2022-10-04T18:52:07.401Z,101659.59
2022-10-04T18:54:45.543Z,101636.91
2022-10-04T18:57:24.824Z,101661.63
2022-10-04T19:00:21.183Z,101676.63
2022-10-04T19:03:02.243Z,101675.22
2022-10-04T19:05:39.602Z,101676.53
2022-10-04T19:08:20.057Z,101681.44
2022-10-04T19:10:52.407Z,101688.13
2022-10-04T19:13:35.122Z,101690.06
2022-10-04T19:16:17.026Z,101689.19
2022-10-04T19:18:56.985Z,101697.78
2022-10-04T19:21:34.074Z,101691.31
2022-10-04T19:24:16.441Z,101698.34
2022-10-04T19:26:48.628Z,101693.63
2022-10-04T19:29:32.523Z,101704.88
2022-10-04T19:32:05.354Z,101703.81
2022-10-04T19:34:44.150Z,101704.06
2022-10-04T19:37:21.625Z,101700.94
2022-10-04T19:40:00.653Z,101703.72
2022-10-04T19:42:37.291Z,101706.53
2022-10-04T19:45:22.689Z,101707.69
2022-10-04T19:47:55.833Z,101714.66
2022-10-04T19:50:28.319Z,101722.34
2022-10-04T19:53:03.297Z,101725.66
2022-10-04T19:55:44.033Z,101727.44
2022-10-04T19:58:27.587Z,101739.81
2022-10-04T20:00:57.893Z,101745.94
2022-10-04T20:03:26.580Z,101754.63
2022-10-04T20:05:57.571Z,101757.09
2022-10-04T20:09:00.785Z,101753.00
2022-10-04T20:11:49.648Z,101750.22
2022-10-04T20:14:47.111Z,101759.56
2022-10-04T20:17:34.921Z,101756.75
2022-10-04T20:20:03.323Z,101757.44
2022-10-04T20:22:47.166Z,101724.66
2022-10-04T20:25:53.655Z,101758.84
2022-10-04T20:28:46.288Z,101763.41
2022-10-04T20:31:52.010Z,101767.41
2022-10-04T20:34:50.357Z,101771.28
2022-10-04T20:37:19.305Z,101779.81
2022-10-04T20:39:57.774Z,101723.56
2022-10-04T20:42:34.313Z,101784.53
2022-10-04T20:45:07.025Z,101739.56
2022-10-04T20:47:39.358Z,101749.91
2022-10-04T20:50:31.393Z,101788.94
2022-10-04T20:53:03.486Z,101793.88
2022-10-04T20:55:33.547Z,101801.56
2022-10-04T20:58:03.604Z,101804.13
2022-10-04T21:00:35.026Z,101797.47
2022-10-04T21:03:11.603Z,101800.56
2022-10-04T21:05:41.618Z,101814.31
2022-10-04T21:08:21.724Z,101812.59
2022-10-04T21:11:19.828Z,101815.44
2022-10-04T21:13:56.694Z,101814.91
2022-10-04T21:16:49.187Z,101816.03
2022-10-04T21:19:51.527Z,101817.56
2022-10-04T21:22:40.797Z,101822.22
2022-10-04T21:25:32.415Z,101818.56
2022-10-04T21:28:33.176Z,101821.22
2022-10-04T21:31:02.781Z,101827.72
2022-10-04T21:33:33.447Z,101823.91
2022-10-04T21:36:02.039Z,101827.00
2022-10-04T21:38:31.814Z,101812.59
2022-10-04T21:41:00.085Z,101814.00
2022-10-04T21:43:28.590Z,101823.88
2022-10-04T21:45:57.127Z,101819.94
2022-10-04T21:48:25.459Z,101810.69
2022-10-04T21:50:54.873Z,101813.66
2022-10-04T21:53:23.680Z,101812.81
2022-10-04T21:55:53.337Z,101814.78
2022-10-04T21:58:21.632Z,101810.78
2022-10-04T22:00:50.154Z,101817.16
2022-10-04T22:03:18.480Z,101818.84
2022-10-04T22:05:46.776Z,101818.84
2022-10-04T22:08:15.022Z,101825.91
2022-10-04T22:10:43.598Z,101822.97
2022-10-04T22:13:13.301Z,101819.75
2022-10-04T22:15:42.645Z,101805.41
2022-10-04T22:18:10.943Z,101813.38
2022-10-04T22:20:39.327Z,101809.47
2022-10-04T22:23:17.703Z,101772.22
2022-10-04T22:25:46.078Z,101807.75
2022-10-04T22:28:22.183Z,101807.22
2022-10-04T22:30:50.886Z,101807.06
2022-10-04T22:33:29.090Z,101810.34
2022-10-04T22:35:58.930Z,101818.13
2022-10-04T22:38:27.234Z,101814.44
2022-10-04T22:40:55.488Z,101827.03
2022-10-04T22:43:25.168Z,101829.31
2022-10-04T22:45:55.589Z,101843.16
2022-10-04T22:48:26.655Z,101833.56
2022-10-04T22:50:55.026Z,101846.56
2022-10-04T22:53:24.452Z,101841.88
2022-10-04T22:55:55.974Z,101842.31
2022-10-04T22:58:25.677Z,101832.28
2022-10-04T23:00:56.164Z,101834.41
2022-10-04T23:03:31.407Z,101832.16
2022-10-04T23:06:00.478Z,101831.88
2022-10-04T23:08:29.329Z,101799.88
2022-10-04T23:10:59.014Z,101827.19
2022-10-04T23:13:29.007Z,101806.97
2022-10-04T23:16:00.721Z,101832.28
2022-10-04T23:18:30.487Z,101839.38
2022-10-04T23:21:02.265Z,101804.00
2022-10-04T23:23:32.269Z,101836.25
2022-10-04T23:26:00.556Z,101802.97
2022-10-04T23:28:31.014Z,101842.91
2022-10-04T23:31:06.131Z,101564.56
2022-10-04T23:33:34.511Z,101846.13
2022-10-04T23:36:02.843Z,101849.09
2022-10-04T23:38:31.469Z,101842.31
2022-10-04T23:41:00.137Z,101842.88
2022-10-04T23:43:31.953Z,101840.88
2022-10-04T23:46:00.550Z,101828.13
2022-10-04T23:48:32.049Z,101839.47
2022-10-04T23:51:01.132Z,101847.28
2022-10-04T23:53:31.931Z,101850.50
2022-10-04T23:56:05.194Z,101854.75
2022-10-04T23:58:37.601Z,101765.03
